Pozo, California
Current Conditions -  °F | °C
As of 1:51 AM on Saturday 22 Nov 2014 (Local Time) from KSMX Reporting Station
Clear Clear  
Wind Chill: 50°   Ceiling: Unl
Heat Index: 50°   Visibility: 10mi
Dew Point: 43°   Wind: 0mph
Humidity: 77%   Direction: NA
Pressure: 30.13"   Gusts: NA
Location:  35.235°N, 120.021°W
Report Text: KSMX 220951Z AUTO 00000KT 10SM CLR 10/06 A3013 RMK AO2 SLP207 T01000061
Loading
Personal Weather Stations






























Interactive Weather Map New forecast layout! Learn more

10-Day Weather Forecast

Advertisements
Track Severe Weather on mobile